sensor_id;sensor_type;location;lat;lon;timestamp;P1;durP1;ratioP1;P2;durP2;ratioP2
24485;SDS011;13449;49.374;8.584;2022-08-19T00:01:59;19.88;;;12.27;;
24485;SDS011;13449;49.374;8.584;2022-08-19T00:04:29;14.23;;;9.48;;
24485;SDS011;13449;49.374;8.584;2022-08-19T00:06:58;20.88;;;9.25;;
24485;SDS011;13449;49.374;8.584;2022-08-19T00:09:32;18.30;;;11.00;;
24485;SDS011;13449;49.374;8.584;2022-08-19T00:11:59;16.40;;;10.07;;
24485;SDS011;13449;49.374;8.584;2022-08-19T00:14:26;20.88;;;10.82;;
24485;SDS011;13449;49.374;8.584;2022-08-19T00:16:53;21.55;;;11.52;;
24485;SDS011;13449;49.374;8.584;2022-08-19T00:19:21;17.75;;;10.68;;
24485;SDS011;13449;49.374;8.584;2022-08-19T00:21:49;16.67;;;9.40;;
24485;SDS011;13449;49.374;8.584;2022-08-19T00:24:16;18.13;;;11.60;;
24485;SDS011;13449;49.374;8.584;2022-08-19T00:26:45;24.05;;;12.00;;
24485;SDS011;13449;49.374;8.584;2022-08-19T00:29:12;19.55;;;10.65;;
24485;SDS011;13449;49.374;8.584;2022-08-19T00:31:45;18.60;;;11.02;;
24485;SDS011;13449;49.374;8.584;2022-08-19T00:34:13;17.85;;;11.68;;
24485;SDS011;13449;49.374;8.584;2022-08-19T00:36:41;18.50;;;11.80;;
24485;SDS011;13449;49.374;8.584;2022-08-19T00:39:08;14.52;;;9.85;;
24485;SDS011;13449;49.374;8.584;2022-08-19T00:41:35;21.58;;;12.45;;
24485;SDS011;13449;49.374;8.584;2022-08-19T00:46:35;13.80;;;9.57;;
24485;SDS011;13449;49.374;8.584;2022-08-19T00:49:14;14.80;;;10.05;;
24485;SDS011;13449;49.374;8.584;2022-08-19T00:51:49;18.42;;;10.95;;
24485;SDS011;13449;49.374;8.584;2022-08-19T00:54:19;16.75;;;9.98;;
24485;SDS011;13449;49.374;8.584;2022-08-19T00:56:57;21.52;;;12.25;;
24485;SDS011;13449;49.374;8.584;2022-08-19T00:59:25;25.45;;;12.10;;
24485;SDS011;13449;49.374;8.584;2022-08-19T01:02:22;21.15;;;12.13;;
24485;SDS011;13449;49.374;8.584;2022-08-19T01:04:49;17.67;;;12.07;;
24485;SDS011;13449;49.374;8.584;2022-08-19T01:07:23;24.80;;;12.75;;
24485;SDS011;13449;49.374;8.584;2022-08-19T01:09:53;19.67;;;11.93;;
24485;SDS011;13449;49.374;8.584;2022-08-19T01:12:19;19.20;;;13.18;;
24485;SDS011;13449;49.374;8.584;2022-08-19T01:14:49;23.90;;;12.10;;
24485;SDS011;13449;49.374;8.584;2022-08-19T01:17:16;20.52;;;12.98;;
24485;SDS011;13449;49.374;8.584;2022-08-19T01:19:45;21.38;;;12.70;;
24485;SDS011;13449;49.374;8.584;2022-08-19T01:24:58;18.65;;;11.85;;
24485;SDS011;13449;49.374;8.584;2022-08-19T01:27:24;21.30;;;13.05;;
24485;SDS011;13449;49.374;8.584;2022-08-19T01:29:54;18.27;;;11.88;;
24485;SDS011;13449;49.374;8.584;2022-08-19T01:32:23;25.70;;;13.68;;
24485;SDS011;13449;49.374;8.584;2022-08-19T01:34:59;17.02;;;12.32;;
24485;SDS011;13449;49.374;8.584;2022-08-19T01:37:28;19.42;;;13.15;;
24485;SDS011;13449;49.374;8.584;2022-08-19T01:39:55;19.55;;;13.50;;
24485;SDS011;13449;49.374;8.584;2022-08-19T01:42:21;15.60;;;10.30;;
24485;SDS011;13449;49.374;8.584;2022-08-19T01:44:56;28.77;;;14.15;;
24485;SDS011;13449;49.374;8.584;2022-08-19T01:47:23;16.33;;;11.23;;
24485;SDS011;13449;49.374;8.584;2022-08-19T01:49:49;15.77;;;10.90;;
24485;SDS011;13449;49.374;8.584;2022-08-19T01:52:15;15.85;;;11.32;;
24485;SDS011;13449;49.374;8.584;2022-08-19T01:54:42;20.50;;;12.95;;
24485;SDS011;13449;49.374;8.584;2022-08-19T01:57:10;20.90;;;13.55;;
24485;SDS011;13449;49.374;8.584;2022-08-19T01:59:39;23.38;;;13.93;;
24485;SDS011;13449;49.374;8.584;2022-08-19T02:02:17;21.13;;;13.50;;
24485;SDS011;13449;49.374;8.584;2022-08-19T02:04:43;27.48;;;14.30;;
24485;SDS011;13449;49.374;8.584;2022-08-19T02:07:20;24.13;;;13.77;;
24485;SDS011;13449;49.374;8.584;2022-08-19T02:09:50;20.92;;;12.02;;
24485;SDS011;13449;49.374;8.584;2022-08-19T02:12:22;23.30;;;13.13;;
24485;SDS011;13449;49.374;8.584;2022-08-19T02:14:48;17.67;;;12.48;;
24485;SDS011;13449;49.374;8.584;2022-08-19T02:17:17;24.83;;;13.95;;
24485;SDS011;13449;49.374;8.584;2022-08-19T02:19:44;22.75;;;13.00;;
24485;SDS011;13449;49.374;8.584;2022-08-19T02:22:10;22.23;;;13.43;;
24485;SDS011;13449;49.374;8.584;2022-08-19T02:24:37;19.50;;;14.05;;
24485;SDS011;13449;49.374;8.584;2022-08-19T02:27:10;19.50;;;12.55;;
24485;SDS011;13449;49.374;8.584;2022-08-19T02:29:37;14.80;;;11.27;;
24485;SDS011;13449;49.374;8.584;2022-08-19T02:32:03;17.63;;;13.38;;
24485;SDS011;13449;49.374;8.584;2022-08-19T02:34:31;20.85;;;11.68;;
24485;SDS011;13449;49.374;8.584;2022-08-19T02:36:58;18.13;;;11.02;;
24485;SDS011;13449;49.374;8.584;2022-08-19T02:39:28;15.40;;;10.80;;
24485;SDS011;13449;49.374;8.584;2022-08-19T02:42:01;19.48;;;12.77;;
24485;SDS011;13449;49.374;8.584;2022-08-19T02:44:28;17.08;;;11.50;;
24485;SDS011;13449;49.374;8.584;2022-08-19T02:46:57;16.25;;;11.57;;
24485;SDS011;13449;49.374;8.584;2022-08-19T02:49:23;14.63;;;9.73;;
24485;SDS011;13449;49.374;8.584;2022-08-19T02:51:59;14.90;;;10.40;;
24485;SDS011;13449;49.374;8.584;2022-08-19T02:54:33;19.05;;;12.68;;
24485;SDS011;13449;49.374;8.584;2022-08-19T02:56:59;22.17;;;13.52;;
24485;SDS011;13449;49.374;8.584;2022-08-19T02:59:26;17.85;;;12.20;;
24485;SDS011;13449;49.374;8.584;2022-08-19T03:01:56;17.73;;;12.38;;
24485;SDS011;13449;49.374;8.584;2022-08-19T03:04:22;16.33;;;10.27;;
24485;SDS011;13449;49.374;8.584;2022-08-19T03:06:52;26.15;;;13.30;;
24485;SDS011;13449;49.374;8.584;2022-08-19T03:09:25;20.30;;;13.82;;
24485;SDS011;13449;49.374;8.584;2022-08-19T03:11:52;23.30;;;13.90;;
24485;SDS011;13449;49.374;8.584;2022-08-19T03:14:22;20.83;;;13.45;;
24485;SDS011;13449;49.374;8.584;2022-08-19T03:16:50;23.35;;;14.07;;
24485;SDS011;13449;49.374;8.584;2022-08-19T03:19:18;23.85;;;14.38;;
24485;SDS011;13449;49.374;8.584;2022-08-19T03:21:47;23.98;;;14.85;;
24485;SDS011;13449;49.374;8.584;2022-08-19T03:24:14;20.92;;;13.85;;
24485;SDS011;13449;49.374;8.584;2022-08-19T03:26:48;22.83;;;15.10;;
24485;SDS011;13449;49.374;8.584;2022-08-19T03:29:28;22.73;;;13.15;;
24485;SDS011;13449;49.374;8.584;2022-08-19T03:31:58;25.08;;;14.07;;
24485;SDS011;13449;49.374;8.584;2022-08-19T03:34:30;24.52;;;14.65;;
24485;SDS011;13449;49.374;8.584;2022-08-19T03:37:06;20.65;;;11.27;;
24485;SDS011;13449;49.374;8.584;2022-08-19T03:39:35;25.92;;;15.35;;
24485;SDS011;13449;49.374;8.584;2022-08-19T03:42:03;22.20;;;14.77;;
24485;SDS011;13449;49.374;8.584;2022-08-19T03:44:51;22.75;;;14.57;;
24485;SDS011;13449;49.374;8.584;2022-08-19T03:47:24;20.60;;;13.23;;
24485;SDS011;13449;49.374;8.584;2022-08-19T03:49:51;24.58;;;13.35;;
24485;SDS011;13449;49.374;8.584;2022-08-19T03:52:18;23.15;;;14.57;;
24485;SDS011;13449;49.374;8.584;2022-08-19T03:54:52;28.52;;;14.82;;
24485;SDS011;13449;49.374;8.584;2022-08-19T03:57:21;20.67;;;14.63;;
24485;SDS011;13449;49.374;8.584;2022-08-19T03:59:57;27.25;;;13.82;;
24485;SDS011;13449;49.374;8.584;2022-08-19T04:02:39;22.80;;;14.65;;
24485;SDS011;13449;49.374;8.584;2022-08-19T04:05:26;17.58;;;11.90;;
24485;SDS011;13449;49.374;8.584;2022-08-19T04:07:54;25.02;;;13.35;;
24485;SDS011;13449;49.374;8.584;2022-08-19T04:10:39;21.10;;;14.23;;
24485;SDS011;13449;49.374;8.584;2022-08-19T04:13:06;24.50;;;12.95;;
24485;SDS011;13449;49.374;8.584;2022-08-19T04:15:40;17.63;;;12.55;;
24485;SDS011;13449;49.374;8.584;2022-08-19T04:18:10;18.02;;;10.75;;
24485;SDS011;13449;49.374;8.584;2022-08-19T04:20:46;20.60;;;13.48;;
24485;SDS011;13449;49.374;8.584;2022-08-19T04:23:17;22.80;;;13.88;;
24485;SDS011;13449;49.374;8.584;2022-08-19T04:25:50;16.85;;;11.80;;
24485;SDS011;13449;49.374;8.584;2022-08-19T04:28:17;30.55;;;15.93;;
24485;SDS011;13449;49.374;8.584;2022-08-19T04:30:48;25.23;;;14.48;;
24485;SDS011;13449;49.374;8.584;2022-08-19T04:33:17;21.60;;;13.52;;
24485;SDS011;13449;49.374;8.584;2022-08-19T04:35:53;23.15;;;13.70;;
24485;SDS011;13449;49.374;8.584;2022-08-19T04:38:24;24.13;;;14.10;;
24485;SDS011;13449;49.374;8.584;2022-08-19T04:40:51;25.55;;;15.35;;
24485;SDS011;13449;49.374;8.584;2022-08-19T04:43:38;19.75;;;11.88;;
24485;SDS011;13449;49.374;8.584;2022-08-19T04:46:06;17.80;;;11.65;;
24485;SDS011;13449;49.374;8.584;2022-08-19T04:48:53;21.95;;;13.43;;
24485;SDS011;13449;49.374;8.584;2022-08-19T04:51:39;21.35;;;12.23;;
24485;SDS011;13449;49.374;8.584;2022-08-19T04:56:39;25.05;;;14.32;;
24485;SDS011;13449;49.374;8.584;2022-08-19T04:59:09;17.45;;;11.60;;
24485;SDS011;13449;49.374;8.584;2022-08-19T05:01:43;21.30;;;12.30;;
24485;SDS011;13449;49.374;8.584;2022-08-19T05:04:09;29.58;;;14.48;;
24485;SDS011;13449;49.374;8.584;2022-08-19T05:06:37;24.98;;;14.13;;
24485;SDS011;13449;49.374;8.584;2022-08-19T05:09:05;22.85;;;13.35;;
24485;SDS011;13449;49.374;8.584;2022-08-19T05:11:38;22.23;;;13.40;;
24485;SDS011;13449;49.374;8.584;2022-08-19T05:14:06;22.55;;;13.75;;
24485;SDS011;13449;49.374;8.584;2022-08-19T05:16:40;20.08;;;12.85;;
24485;SDS011;13449;49.374;8.584;2022-08-19T05:19:07;26.58;;;14.20;;
24485;SDS011;13449;49.374;8.584;2022-08-19T05:21:52;26.35;;;14.45;;
24485;SDS011;13449;49.374;8.584;2022-08-19T05:24:38;20.60;;;13.43;;
24485;SDS011;13449;49.374;8.584;2022-08-19T05:27:27;24.98;;;15.02;;
24485;SDS011;13449;49.374;8.584;2022-08-19T05:29:54;14.90;;;10.75;;
24485;SDS011;13449;49.374;8.584;2022-08-19T05:32:34;25.38;;;15.30;;
24485;SDS011;13449;49.374;8.584;2022-08-19T05:35:00;18.08;;;12.00;;
24485;SDS011;13449;49.374;8.584;2022-08-19T05:37:27;26.98;;;15.18;;
24485;SDS011;13449;49.374;8.584;2022-08-19T05:39:54;24.67;;;14.52;;
24485;SDS011;13449;49.374;8.584;2022-08-19T05:42:21;18.40;;;11.00;;
24485;SDS011;13449;49.374;8.584;2022-08-19T05:44:49;20.33;;;13.30;;
24485;SDS011;13449;49.374;8.584;2022-08-19T05:47:18;25.42;;;13.77;;
24485;SDS011;13449;49.374;8.584;2022-08-19T05:49:48;30.55;;;14.45;;
24485;SDS011;13449;49.374;8.584;2022-08-19T05:52:16;21.55;;;12.38;;
24485;SDS011;13449;49.374;8.584;2022-08-19T05:54:45;16.88;;;11.98;;
24485;SDS011;13449;49.374;8.584;2022-08-19T05:57:16;25.83;;;12.73;;
24485;SDS011;13449;49.374;8.584;2022-08-19T05:59:45;20.45;;;12.50;;
24485;SDS011;13449;49.374;8.584;2022-08-19T06:02:23;21.17;;;13.90;;
24485;SDS011;13449;49.374;8.584;2022-08-19T06:04:50;22.08;;;12.25;;
24485;SDS011;13449;49.374;8.584;2022-08-19T06:07:24;17.40;;;11.63;;
24485;SDS011;13449;49.374;8.584;2022-08-19T06:09:50;19.00;;;11.50;;
24485;SDS011;13449;49.374;8.584;2022-08-19T06:12:30;17.70;;;12.55;;
24485;SDS011;13449;49.374;8.584;2022-08-19T06:15:05;21.17;;;13.13;;
24485;SDS011;13449;49.374;8.584;2022-08-19T06:17:37;21.17;;;12.98;;
24485;SDS011;13449;49.374;8.584;2022-08-19T06:20:04;17.98;;;12.23;;
24485;SDS011;13449;49.374;8.584;2022-08-19T06:22:38;21.42;;;12.98;;
24485;SDS011;13449;49.374;8.584;2022-08-19T06:25:09;16.92;;;10.30;;
24485;SDS011;13449;49.374;8.584;2022-08-19T06:27:39;16.92;;;11.45;;
24485;SDS011;13449;49.374;8.584;2022-08-19T06:30:26;20.33;;;13.35;;
24485;SDS011;13449;49.374;8.584;2022-08-19T06:32:54;16.33;;;10.95;;
24485;SDS011;13449;49.374;8.584;2022-08-19T06:35:20;16.63;;;11.00;;
24485;SDS011;13449;49.374;8.584;2022-08-19T06:37:47;15.30;;;11.25;;
24485;SDS011;13449;49.374;8.584;2022-08-19T06:40:23;17.63;;;11.40;;
24485;SDS011;13449;49.374;8.584;2022-08-19T06:42:53;20.30;;;11.02;;
24485;SDS011;13449;49.374;8.584;2022-08-19T06:45:23;15.90;;;11.00;;
24485;SDS011;13449;49.374;8.584;2022-08-19T06:48:00;16.70;;;10.25;;
24485;SDS011;13449;49.374;8.584;2022-08-19T06:50:36;18.17;;;10.90;;
24485;SDS011;13449;49.374;8.584;2022-08-19T06:53:08;19.10;;;10.45;;
24485;SDS011;13449;49.374;8.584;2022-08-19T06:55:35;16.83;;;11.18;;
24485;SDS011;13449;49.374;8.584;2022-08-19T06:58:02;16.33;;;11.55;;
24485;SDS011;13449;49.374;8.584;2022-08-19T07:00:29;17.15;;;9.95;;
24485;SDS011;13449;49.374;8.584;2022-08-19T07:03:01;14.18;;;10.02;;
24485;SDS011;13449;49.374;8.584;2022-08-19T07:05:37;15.88;;;10.00;;
24485;SDS011;13449;49.374;8.584;2022-08-19T07:08:19;15.32;;;10.60;;
24485;SDS011;13449;49.374;8.584;2022-08-19T07:11:00;15.13;;;10.32;;
24485;SDS011;13449;49.374;8.584;2022-08-19T07:13:36;13.95;;;9.48;;
24485;SDS011;13449;49.374;8.584;2022-08-19T07:16:04;15.25;;;9.73;;
24485;SDS011;13449;49.374;8.584;2022-08-19T07:18:34;22.73;;;10.02;;
24485;SDS011;13449;49.374;8.584;2022-08-19T07:21:10;15.07;;;9.68;;
24485;SDS011;13449;49.374;8.584;2022-08-19T07:23:42;16.30;;;8.63;;
24485;SDS011;13449;49.374;8.584;2022-08-19T07:26:13;20.45;;;9.13;;
24485;SDS011;13449;49.374;8.584;2022-08-19T07:28:53;14.00;;;9.18;;
24485;SDS011;13449;49.374;8.584;2022-08-19T07:31:22;10.02;;;8.07;;
24485;SDS011;13449;49.374;8.584;2022-08-19T07:33:56;10.63;;;7.93;;
24485;SDS011;13449;49.374;8.584;2022-08-19T07:36:26;9.98;;;7.28;;
24485;SDS011;13449;49.374;8.584;2022-08-19T07:38:59;9.80;;;8.13;;
24485;SDS011;13449;49.374;8.584;2022-08-19T07:41:28;10.75;;;7.88;;
24485;SDS011;13449;49.374;8.584;2022-08-19T07:43:58;13.98;;;8.70;;
24485;SDS011;13449;49.374;8.584;2022-08-19T07:46:30;13.10;;;8.63;;
24485;SDS011;13449;49.374;8.584;2022-08-19T07:49:00;16.35;;;8.80;;
24485;SDS011;13449;49.374;8.584;2022-08-19T07:51:26;21.88;;;8.63;;
24485;SDS011;13449;49.374;8.584;2022-08-19T07:54:02;11.23;;;8.40;;
24485;SDS011;13449;49.374;8.584;2022-08-19T07:56:29;10.65;;;7.40;;
24485;SDS011;13449;49.374;8.584;2022-08-19T07:59:00;11.40;;;7.53;;
24485;SDS011;13449;49.374;8.584;2022-08-19T08:01:29;12.85;;;7.57;;
24485;SDS011;13449;49.374;8.584;2022-08-19T08:03:56;11.98;;;7.85;;
24485;SDS011;13449;49.374;8.584;2022-08-19T08:06:51;10.73;;;7.22;;
24485;SDS011;13449;49.374;8.584;2022-08-19T08:09:39;9.48;;;7.43;;
24485;SDS011;13449;49.374;8.584;2022-08-19T08:12:16;16.02;;;7.45;;
24485;SDS011;13449;49.374;8.584;2022-08-19T08:15:01;14.18;;;6.50;;
24485;SDS011;13449;49.374;8.584;2022-08-19T08:17:42;10.43;;;6.93;;
24485;SDS011;13449;49.374;8.584;2022-08-19T08:20:18;10.43;;;6.07;;
24485;SDS011;13449;49.374;8.584;2022-08-19T08:22:55;12.65;;;6.38;;
24485;SDS011;13449;49.374;8.584;2022-08-19T08:25:40;11.45;;;6.43;;
24485;SDS011;13449;49.374;8.584;2022-08-19T08:28:14;8.05;;;5.63;;
24485;SDS011;13449;49.374;8.584;2022-08-19T08:30:43;7.30;;;5.95;;
24485;SDS011;13449;49.374;8.584;2022-08-19T08:33:12;9.15;;;6.05;;
24485;SDS011;13449;49.374;8.584;2022-08-19T08:35:44;16.45;;;6.10;;
24485;SDS011;13449;49.374;8.584;2022-08-19T08:38:18;13.80;;;5.78;;
24485;SDS011;13449;49.374;8.584;2022-08-19T08:40:46;16.00;;;5.22;;
24485;SDS011;13449;49.374;8.584;2022-08-19T08:43:23;8.88;;;5.50;;
24485;SDS011;13449;49.374;8.584;2022-08-19T08:46:05;6.68;;;4.97;;
24485;SDS011;13449;49.374;8.584;2022-08-19T08:51:40;9.38;;;4.80;;
24485;SDS011;13449;49.374;8.584;2022-08-19T08:54:27;11.90;;;4.43;;
24485;SDS011;13449;49.374;8.584;2022-08-19T08:57:02;8.05;;;3.88;;
24485;SDS011;13449;49.374;8.584;2022-08-19T08:59:38;7.10;;;4.25;;
24485;SDS011;13449;49.374;8.584;2022-08-19T09:02:08;8.48;;;4.60;;
24485;SDS011;13449;49.374;8.584;2022-08-19T09:04:42;6.25;;;4.40;;
24485;SDS011;13449;49.374;8.584;2022-08-19T09:10:44;8.45;;;4.53;;
24485;SDS011;13449;49.374;8.584;2022-08-19T09:16:14;8.80;;;4.65;;
24485;SDS011;13449;49.374;8.584;2022-08-19T09:18:54;6.57;;;4.45;;
24485;SDS011;13449;49.374;8.584;2022-08-19T09:21:25;5.28;;;4.20;;
24485;SDS011;13449;49.374;8.584;2022-08-19T09:23:58;9.05;;;4.95;;
24485;SDS011;13449;49.374;8.584;2022-08-19T09:26:25;4.63;;;4.22;;
24485;SDS011;13449;49.374;8.584;2022-08-19T09:29:17;7.15;;;4.53;;
24485;SDS011;13449;49.374;8.584;2022-08-19T09:31:47;8.80;;;4.93;;
24485;SDS011;13449;49.374;8.584;2022-08-19T09:34:16;6.43;;;4.60;;
24485;SDS011;13449;49.374;8.584;2022-08-19T09:36:45;7.88;;;4.07;;
24485;SDS011;13449;49.374;8.584;2022-08-19T09:39:12;9.35;;;4.97;;
24485;SDS011;13449;49.374;8.584;2022-08-19T09:41:41;9.07;;;3.83;;
24485;SDS011;13449;49.374;8.584;2022-08-19T09:44:14;6.07;;;4.07;;
24485;SDS011;13449;49.374;8.584;2022-08-19T09:46:40;4.78;;;3.95;;
24485;SDS011;13449;49.374;8.584;2022-08-19T09:49:09;5.38;;;3.63;;
24485;SDS011;13449;49.374;8.584;2022-08-19T09:51:38;8.50;;;3.20;;
24485;SDS011;13449;49.374;8.584;2022-08-19T09:54:16;3.85;;;3.47;;
24485;SDS011;13449;49.374;8.584;2022-08-19T09:56:48;3.92;;;3.33;;
24485;SDS011;13449;49.374;8.584;2022-08-19T09:59:22;3.85;;;3.42;;
24485;SDS011;13449;49.374;8.584;2022-08-19T10:01:49;3.95;;;3.65;;
24485;SDS011;13449;49.374;8.584;2022-08-19T10:04:17;7.15;;;3.90;;
24485;SDS011;13449;49.374;8.584;2022-08-19T10:06:47;8.27;;;4.07;;
24485;SDS011;13449;49.374;8.584;2022-08-19T10:09:20;10.48;;;4.20;;
24485;SDS011;13449;49.374;8.584;2022-08-19T10:12:00;9.23;;;3.63;;
24485;SDS011;13449;49.374;8.584;2022-08-19T10:14:28;5.88;;;3.80;;
24485;SDS011;13449;49.374;8.584;2022-08-19T10:17:01;4.70;;;4.25;;
24485;SDS011;13449;49.374;8.584;2022-08-19T10:19:45;6.15;;;4.65;;
24485;SDS011;13449;49.374;8.584;2022-08-19T10:22:21;9.27;;;4.13;;
24485;SDS011;13449;49.374;8.584;2022-08-19T10:24:50;6.13;;;3.63;;
24485;SDS011;13449;49.374;8.584;2022-08-19T10:27:32;5.63;;;3.45;;
24485;SDS011;13449;49.374;8.584;2022-08-19T10:30:00;17.35;;;3.90;;
24485;SDS011;13449;49.374;8.584;2022-08-19T10:32:35;4.35;;;3.35;;
24485;SDS011;13449;49.374;8.584;2022-08-19T10:35:11;8.02;;;4.03;;
24485;SDS011;13449;49.374;8.584;2022-08-19T10:37:47;6.07;;;3.70;;
24485;SDS011;13449;49.374;8.584;2022-08-19T10:40:22;4.97;;;3.95;;
24485;SDS011;13449;49.374;8.584;2022-08-19T10:42:48;13.82;;;3.55;;
24485;SDS011;13449;49.374;8.584;2022-08-19T10:45:17;5.85;;;3.40;;
24485;SDS011;13449;49.374;8.584;2022-08-19T10:47:44;12.38;;;3.67;;
24485;SDS011;13449;49.374;8.584;2022-08-19T10:50:13;4.28;;;3.88;;
24485;SDS011;13449;49.374;8.584;2022-08-19T10:53:02;11.45;;;3.28;;
24485;SDS011;13449;49.374;8.584;2022-08-19T10:55:37;4.57;;;3.97;;
24485;SDS011;13449;49.374;8.584;2022-08-19T10:58:22;5.80;;;4.10;;
24485;SDS011;13449;49.374;8.584;2022-08-19T11:00:53;4.30;;;3.90;;
24485;SDS011;13449;49.374;8.584;2022-08-19T11:03:21;5.78;;;3.88;;
24485;SDS011;13449;49.374;8.584;2022-08-19T11:06:02;6.65;;;3.92;;
24485;SDS011;13449;49.374;8.584;2022-08-19T11:08:38;5.95;;;3.78;;
24485;SDS011;13449;49.374;8.584;2022-08-19T11:11:18;5.88;;;4.43;;
24485;SDS011;13449;49.374;8.584;2022-08-19T11:14:28;7.13;;;4.47;;
24485;SDS011;13449;49.374;8.584;2022-08-19T11:16:59;12.88;;;4.80;;
24485;SDS011;13449;49.374;8.584;2022-08-19T11:19:33;4.55;;;4.13;;
24485;SDS011;13449;49.374;8.584;2022-08-19T11:22:07;5.38;;;4.70;;
24485;SDS011;13449;49.374;8.584;2022-08-19T11:24:46;10.40;;;5.80;;
24485;SDS011;13449;49.374;8.584;2022-08-19T11:27:12;7.63;;;4.93;;
24485;SDS011;13449;49.374;8.584;2022-08-19T11:29:46;8.98;;;5.22;;
24485;SDS011;13449;49.374;8.584;2022-08-19T11:32:18;7.15;;;5.18;;
24485;SDS011;13449;49.374;8.584;2022-08-19T11:34:57;22.65;;;6.00;;
24485;SDS011;13449;49.374;8.584;2022-08-19T11:37:24;6.22;;;4.68;;
24485;SDS011;13449;49.374;8.584;2022-08-19T11:39:50;10.50;;;5.05;;
24485;SDS011;13449;49.374;8.584;2022-08-19T11:42:20;7.70;;;5.25;;
24485;SDS011;13449;49.374;8.584;2022-08-19T11:45:05;9.55;;;4.72;;
24485;SDS011;13449;49.374;8.584;2022-08-19T11:47:33;9.60;;;5.13;;
24485;SDS011;13449;49.374;8.584;2022-08-19T11:50:00;5.75;;;5.15;;
24485;SDS011;13449;49.374;8.584;2022-08-19T11:52:26;8.43;;;4.95;;
24485;SDS011;13449;49.374;8.584;2022-08-19T11:54:53;7.25;;;5.22;;
24485;SDS011;13449;49.374;8.584;2022-08-19T11:57:19;7.47;;;5.50;;
24485;SDS011;13449;49.374;8.584;2022-08-19T11:59:49;9.13;;;4.38;;
24485;SDS011;13449;49.374;8.584;2022-08-19T12:02:18;8.50;;;4.40;;
24485;SDS011;13449;49.374;8.584;2022-08-19T12:04:45;5.55;;;4.13;;
24485;SDS011;13449;49.374;8.584;2022-08-19T12:07:14;10.63;;;4.32;;
24485;SDS011;13449;49.374;8.584;2022-08-19T12:09:48;5.50;;;4.15;;
24485;SDS011;13449;49.374;8.584;2022-08-19T12:12:14;7.53;;;3.83;;
24485;SDS011;13449;49.374;8.584;2022-08-19T12:14:43;3.65;;;3.35;;
24485;SDS011;13449;49.374;8.584;2022-08-19T12:17:11;6.60;;;4.25;;
24485;SDS011;13449;49.374;8.584;2022-08-19T12:19:41;5.63;;;4.07;;
24485;SDS011;13449;49.374;8.584;2022-08-19T12:22:14;5.18;;;4.00;;
24485;SDS011;13449;49.374;8.584;2022-08-19T12:24:41;4.38;;;3.97;;
24485;SDS011;13449;49.374;8.584;2022-08-19T12:27:07;5.03;;;4.53;;
24485;SDS011;13449;49.374;8.584;2022-08-19T12:29:38;4.78;;;4.38;;
24485;SDS011;13449;49.374;8.584;2022-08-19T12:32:07;6.70;;;5.35;;
24485;SDS011;13449;49.374;8.584;2022-08-19T12:34:37;7.20;;;4.22;;
24485;SDS011;13449;49.374;8.584;2022-08-19T12:37:10;6.97;;;3.30;;
24485;SDS011;13449;49.374;8.584;2022-08-19T12:39:40;4.93;;;4.18;;
24485;SDS011;13449;49.374;8.584;2022-08-19T12:42:15;4.90;;;4.40;;
24485;SDS011;13449;49.374;8.584;2022-08-19T12:44:44;4.90;;;4.00;;
24485;SDS011;13449;49.374;8.584;2022-08-19T12:47:21;13.15;;;4.00;;
24485;SDS011;13449;49.374;8.584;2022-08-19T12:49:48;5.13;;;3.67;;
24485;SDS011;13449;49.374;8.584;2022-08-19T12:52:21;5.38;;;3.85;;
24485;SDS011;13449;49.374;8.584;2022-08-19T12:54:49;5.07;;;3.90;;
24485;SDS011;13449;49.374;8.584;2022-08-19T12:57:23;4.18;;;3.42;;
24485;SDS011;13449;49.374;8.584;2022-08-19T12:59:57;4.07;;;3.67;;
24485;SDS011;13449;49.374;8.584;2022-08-19T13:02:24;3.95;;;3.60;;
24485;SDS011;13449;49.374;8.584;2022-08-19T13:04:53;6.93;;;3.50;;
24485;SDS011;13449;49.374;8.584;2022-08-19T13:07:32;6.88;;;3.17;;
24485;SDS011;13449;49.374;8.584;2022-08-19T13:09:59;3.38;;;3.08;;
24485;SDS011;13449;49.374;8.584;2022-08-19T13:12:33;3.42;;;3.13;;
24485;SDS011;13449;49.374;8.584;2022-08-19T13:15:02;6.88;;;2.72;;
24485;SDS011;13449;49.374;8.584;2022-08-19T13:17:36;3.28;;;2.97;;
24485;SDS011;13449;49.374;8.584;2022-08-19T13:20:04;4.43;;;3.35;;
24485;SDS011;13449;49.374;8.584;2022-08-19T13:22:35;9.00;;;3.23;;
24485;SDS011;13449;49.374;8.584;2022-08-19T13:25:03;10.15;;;3.55;;
24485;SDS011;13449;49.374;8.584;2022-08-19T13:27:31;4.90;;;3.00;;
24485;SDS011;13449;49.374;8.584;2022-08-19T13:30:03;10.52;;;3.17;;
24485;SDS011;13449;49.374;8.584;2022-08-19T13:32:52;3.28;;;3.03;;
24485;SDS011;13449;49.374;8.584;2022-08-19T13:38:26;2.70;;;2.50;;
24485;SDS011;13449;49.374;8.584;2022-08-19T13:41:03;21.77;;;2.42;;
24485;SDS011;13449;49.374;8.584;2022-08-19T13:43:37;3.20;;;2.78;;
24485;SDS011;13449;49.374;8.584;2022-08-19T13:46:12;3.20;;;2.90;;
24485;SDS011;13449;49.374;8.584;2022-08-19T13:48:46;2.80;;;2.60;;
24485;SDS011;13449;49.374;8.584;2022-08-19T13:51:23;6.95;;;3.15;;
24485;SDS011;13449;49.374;8.584;2022-08-19T13:53:50;3.10;;;2.90;;
24485;SDS011;13449;49.374;8.584;2022-08-19T13:56:18;7.10;;;3.08;;
24485;SDS011;13449;49.374;8.584;2022-08-19T13:58:53;7.28;;;3.22;;
24485;SDS011;13449;49.374;8.584;2022-08-19T14:01:24;3.25;;;2.90;;
24485;SDS011;13449;49.374;8.584;2022-08-19T14:03:52;3.20;;;2.80;;
24485;SDS011;13449;49.374;8.584;2022-08-19T14:06:21;3.45;;;3.03;;
24485;SDS011;13449;49.374;8.584;2022-08-19T14:08:48;2.97;;;2.75;;
24485;SDS011;13449;49.374;8.584;2022-08-19T14:11:14;2.42;;;2.33;;
24485;SDS011;13449;49.374;8.584;2022-08-19T14:13:49;2.88;;;2.60;;
24485;SDS011;13449;49.374;8.584;2022-08-19T14:16:17;4.72;;;3.00;;
24485;SDS011;13449;49.374;8.584;2022-08-19T14:18:43;3.67;;;3.30;;
24485;SDS011;13449;49.374;8.584;2022-08-19T14:21:14;3.08;;;2.78;;
24485;SDS011;13449;49.374;8.584;2022-08-19T14:23:46;4.65;;;2.75;;
24485;SDS011;13449;49.374;8.584;2022-08-19T14:26:14;4.80;;;3.28;;
24485;SDS011;13449;49.374;8.584;2022-08-19T14:28:44;2.90;;;2.60;;
24485;SDS011;13449;49.374;8.584;2022-08-19T14:31:15;3.40;;;2.15;;
24485;SDS011;13449;49.374;8.584;2022-08-19T14:33:48;4.53;;;2.63;;
24485;SDS011;13449;49.374;8.584;2022-08-19T14:36:15;7.38;;;2.97;;
24485;SDS011;13449;49.374;8.584;2022-08-19T14:38:42;3.90;;;3.00;;
24485;SDS011;13449;49.374;8.584;2022-08-19T14:43:45;3.10;;;2.38;;
24485;SDS011;13449;49.374;8.584;2022-08-19T14:46:17;5.00;;;2.60;;
24485;SDS011;13449;49.374;8.584;2022-08-19T14:51:25;7.60;;;2.50;;
24485;SDS011;13449;49.374;8.584;2022-08-19T14:53:53;2.35;;;2.15;;
24485;SDS011;13449;49.374;8.584;2022-08-19T14:56:21;7.75;;;2.63;;
24485;SDS011;13449;49.374;8.584;2022-08-19T14:58:53;3.13;;;2.45;;
24485;SDS011;13449;49.374;8.584;2022-08-19T15:01:26;3.15;;;2.40;;
24485;SDS011;13449;49.374;8.584;2022-08-19T15:03:53;2.20;;;2.10;;
24485;SDS011;13449;49.374;8.584;2022-08-19T15:06:22;3.55;;;2.42;;
24485;SDS011;13449;49.374;8.584;2022-08-19T15:08:50;2.40;;;2.20;;
24485;SDS011;13449;49.374;8.584;2022-08-19T15:11:22;2.58;;;2.30;;
24485;SDS011;13449;49.374;8.584;2022-08-19T15:13:56;3.25;;;2.08;;
24485;SDS011;13449;49.374;8.584;2022-08-19T15:16:37;3.10;;;1.77;;
24485;SDS011;13449;49.374;8.584;2022-08-19T15:19:07;3.25;;;2.13;;
24485;SDS011;13449;49.374;8.584;2022-08-19T15:21:34;3.65;;;2.20;;
24485;SDS011;13449;49.374;8.584;2022-08-19T15:24:04;3.75;;;1.90;;
24485;SDS011;13449;49.374;8.584;2022-08-19T15:26:35;2.17;;;2.05;;